Time;durP1;ratioP1;P1;durP2;ratioP2;P2;SDS_P1;SDS_P2;PMS_P1;PMS_P2;Temp;Humidity;BMP_temperature;BMP_pressure;BME280_temperature;BME280_humidity;BME280_pressure;Samples;Min_cycle;Max_cycle;Signal;HPM_P1;HPM_P2
2021/09/27 00:00:35;;;;;;;8.10;5.05;;;;;;;;;;4898703;29;20127;-61
2021/09/27 00:03:01;;;;;;;8.55;5.15;;;;;;;;;;4898423;29;20417;-62
2021/09/27 00:05:28;;;;;;;8.27;5.18;;;;;;;;;;4898792;29;20044;-62
2021/09/27 00:07:54;;;;;;;10.63;5.25;;;;;;;;;;4898595;29;20465;-62
2021/09/27 00:10:25;;;;;;;12.32;5.90;;;;;;;;;;4898631;29;20028;-61
2021/09/27 00:12:52;;;;;;;12.02;5.03;;;;;;;;;;4881582;29;20453;-63
2021/09/27 00:15:21;;;;;;;10.63;5.70;;;;;;;;;;4898447;29;20060;-62
2021/09/27 00:17:47;;;;;;;8.98;5.40;;;;;;;;;;4897968;29;20041;-62
2021/09/27 00:20:13;;;;;;;11.23;5.75;;;;;;;;;;4898115;29;20426;-62
2021/09/27 00:22:39;;;;;;;14.15;5.32;;;;;;;;;;4881517;29;20032;-61
2021/09/27 00:25:06;;;;;;;15.25;5.47;;;;;;;;;;4881444;29;20093;-61
2021/09/27 00:27:32;;;;;;;14.40;5.30;;;;;;;;;;4897995;29;20047;-61
2021/09/27 00:30:00;;;;;;;12.63;5.45;;;;;;;;;;4898286;29;20028;-61
2021/09/27 00:32:27;;;;;;;9.18;5.47;;;;;;;;;;4898224;29;20032;-61
2021/09/27 00:34:53;;;;;;;10.23;5.65;;;;;;;;;;4898018;29;20272;-61
2021/09/27 00:37:19;;;;;;;12.68;5.60;;;;;;;;;;4898142;29;20362;-61
2021/09/27 00:39:45;;;;;;;11.70;6.05;;;;;;;;;;4898269;29;20041;-61
2021/09/27 00:42:11;;;;;;;9.98;5.88;;;;;;;;;;4881195;29;20103;-61
2021/09/27 00:44:38;;;;;;;9.88;5.20;;;;;;;;;;4897130;29;20056;-61
2021/09/27 00:47:04;;;;;;;11.43;5.22;;;;;;;;;;4897464;29;20355;-61
2021/09/27 00:49:31;;;;;;;8.65;5.45;;;;;;;;;;4897841;29;20035;-61
2021/09/27 00:51:57;;;;;;;12.15;6.10;;;;;;;;;;4897716;29;20076;-61
2021/09/27 00:54:26;;;;;;;11.75;5.80;;;;;;;;;;4897711;29;20060;-61
2021/09/27 00:56:54;;;;;;;10.23;5.70;;;;;;;;;;4898174;29;20165;-61
2021/09/27 00:59:21;;;;;;;10.85;5.70;;;;;;;;;;4880922;29;20081;-61
2021/09/27 01:01:47;;;;;;;12.65;5.85;;;;;;;;;;4897442;29;20084;-61
2021/09/27 01:04:14;;;;;;;13.55;6.47;;;;;;;;;;4897678;29;20033;-61
2021/09/27 01:06:40;;;;;;;12.40;6.13;;;;;;;;;;4880803;29;20056;-61
2021/09/27 01:09:25;;;;;;;13.65;6.65;;;;;;;;;;4897672;29;20484;-61
2021/09/27 01:12:00;;;;;;;12.90;5.88;;;;;;;;;;4880522;29;20032;-61
2021/09/27 01:14:47;;;;;;;11.02;5.78;;;;;;;;;;4897481;29;20056;-62
2021/09/27 01:17:20;;;;;;;13.07;6.72;;;;;;;;;;4805829;29;20195;-60
2021/09/27 01:19:51;;;;;;;12.02;6.32;;;;;;;;;;4820927;29;20152;-61
2021/09/27 01:22:31;;;;;;;15.20;7.28;;;;;;;;;;4821105;29;20558;-61
2021/09/27 01:25:03;;;;;;;12.52;5.88;;;;;;;;;;4806063;29;20178;-63
2021/09/27 01:27:32;;;;;;;12.15;6.22;;;;;;;;;;4805534;29;20030;-63
2021/09/27 01:30:16;;;;;;;12.20;6.03;;;;;;;;;;4805850;29;20038;-61
2021/09/27 01:32:42;;;;;;;9.18;5.75;;;;;;;;;;4821024;29;20034;-61
2021/09/27 01:35:14;;;;;;;12.48;5.75;;;;;;;;;;4805275;29;20566;-63
2021/09/27 01:37:55;;;;;;;18.05;7.60;;;;;;;;;;4821192;29;20117;-62
2021/09/27 01:40:36;;;;;;;15.88;6.72;;;;;;;;;;4820943;29;20121;-63
2021/09/27 01:43:28;;;;;;;11.90;5.93;;;;;;;;;;4820861;29;20060;-63
2021/09/27 01:46:00;;;;;;;11.10;6.30;;;;;;;;;;4819171;29;20171;-63
2021/09/27 01:48:26;;;;;;;;;;;;;;;;;;4820988;29;20054;-63
2021/09/27 01:50:57;;;;;;;15.90;6.47;;;;;;;;;;4821007;29;19912;-63
2021/09/27 01:53:26;;;;;;;13.32;6.35;;;;;;;;;;4829539;29;20098;-64
2021/09/27 01:55:56;;;;;;;14.65;6.07;;;;;;;;;;4879684;29;20024;-64
2021/09/27 01:58:41;;;;;;;13.38;6.50;;;;;;;;;;4880104;29;20091;-64
2021/09/27 02:01:10;;;;;;;14.30;6.50;;;;;;;;;;4880479;29;20041;-64
2021/09/27 02:03:39;;;;;;;15.60;6.97;;;;;;;;;;4898046;29;20025;-63
2021/09/27 02:06:34;;;;;;;13.38;6.90;;;;;;;;;;4896266;29;20028;-62
2021/09/27 02:09:10;;;;;;;12.80;6.57;;;;;;;;;;4820438;29;20449;-62
2021/09/27 02:11:39;;;;;;;13.55;6.95;;;;;;;;;;4820711;29;20044;-63
2021/09/27 02:14:24;;;;;;;15.73;6.40;;;;;;;;;;4820369;29;20053;-64
2021/09/27 02:16:53;;;;;;;10.90;6.68;;;;;;;;;;4820471;29;20038;-64
2021/09/27 02:19:38;;;;;;;13.57;6.10;;;;;;;;;;4804594;29;20072;-63
2021/09/27 02:22:09;;;;;;;14.07;6.72;;;;;;;;;;4820351;29;20061;-63
2021/09/27 02:24:40;;;;;;;14.38;6.72;;;;;;;;;;4820226;29;20027;-65
2021/09/27 02:27:07;;;;;;;11.02;6.15;;;;;;;;;;4804357;29;20046;-63
2021/09/27 02:29:33;;;;;;;14.48;6.63;;;;;;;;;;4820481;29;20063;-64
2021/09/27 02:32:17;;;;;;;12.05;5.70;;;;;;;;;;4804927;29;20034;-64
2021/09/27 02:34:52;;;;;;;13.32;6.82;;;;;;;;;;4820228;29;20045;-64
2021/09/27 02:37:39;;;;;;;12.25;6.50;;;;;;;;;;4820233;29;20503;-63
2021/09/27 02:40:14;;;;;;;13.68;6.35;;;;;;;;;;4819914;29;20058;-63
2021/09/27 02:42:43;;;;;;;11.43;6.55;;;;;;;;;;4820291;29;20089;-63
2021/09/27 02:45:10;;;;;;;11.13;6.18;;;;;;;;;;4834362;29;20032;-62
2021/09/27 02:47:46;;;;;;;15.15;6.72;;;;;;;;;;4896320;29;20039;-62
2021/09/27 02:50:13;;;;;;;15.38;6.57;;;;;;;;;;4878968;29;20036;-62
2021/09/27 02:52:39;;;;;;;11.00;5.93;;;;;;;;;;4896329;29;20057;-62
2021/09/27 02:55:08;;;;;;;10.85;5.65;;;;;;;;;;4895805;29;20028;-64
2021/09/27 02:57:46;;;;;;;11.20;5.80;;;;;;;;;;4895827;29;20025;-63
2021/09/27 03:00:15;;;;;;;16.20;6.05;;;;;;;;;;4895820;29;20075;-62
2021/09/27 03:02:44;;;;;;;10.30;5.72;;;;;;;;;;4878870;29;20060;-62
2021/09/27 03:05:13;;;;;;;10.95;6.03;;;;;;;;;;4895914;29;20024;-63
2021/09/27 03:07:59;;;;;;;11.35;5.75;;;;;;;;;;4881893;29;20133;-64
2021/09/27 03:10:40;;;;;;;9.48;5.47;;;;;;;;;;4899392;29;20024;-63
2021/09/27 03:13:18;;;;;;;11.02;5.57;;;;;;;;;;4899621;29;20473;-63
2021/09/27 03:15:57;;;;;;;9.65;5.20;;;;;;;;;;4899685;29;20036;-64
2021/09/27 03:18:26;;;;;;;8.95;5.50;;;;;;;;;;4899444;29;20068;-65
2021/09/27 03:21:08;;;;;;;12.27;5.70;;;;;;;;;;4899417;29;20130;-64
2021/09/27 03:23:34;;;;;;;11.45;5.55;;;;;;;;;;4882693;29;20029;-64
2021/09/27 03:26:03;;;;;;;8.25;4.80;;;;;;;;;;4899532;29;20108;-64
2021/09/27 03:28:35;;;;;;;10.43;5.47;;;;;;;;;;4899486;29;20032;-65
2021/09/27 03:31:01;;;;;;;;;;;;;;;;;;4899813;29;20025;-64
2021/09/27 03:33:27;;;;;;;10.57;4.65;;;;;;;;;;4899354;29;19907;-64
2021/09/27 03:35:56;;;;;;;9.60;5.03;;;;;;;;;;4899413;29;20062;-62
2021/09/27 03:38:25;;;;;;;8.20;5.18;;;;;;;;;;4899248;29;20036;-63
2021/09/27 03:41:09;;;;;;;8.55;5.35;;;;;;;;;;4882308;29;20088;-62
2021/09/27 03:43:51;;;;;;;12.98;5.05;;;;;;;;;;4899159;29;20036;-63
2021/09/27 03:46:20;;;;;;;9.40;5.00;;;;;;;;;;4882274;29;20457;-61
2021/09/27 03:48:46;;;;;;;8.52;5.10;;;;;;;;;;4899070;29;20075;-62
2021/09/27 03:51:17;;;;;;;9.27;5.22;;;;;;;;;;4881866;29;20450;-62
2021/09/27 03:53:46;;;;;;;8.25;4.72;;;;;;;;;;4898938;29;20036;-62
2021/09/27 03:56:18;;;;;;;14.48;5.20;;;;;;;;;;4898816;29;20067;-64
2021/09/27 03:58:47;;;;;;;9.00;4.78;;;;;;;;;;4898932;29;20123;-65
2021/09/27 04:01:17;;;;;;;10.00;5.90;;;;;;;;;;4881748;29;20423;-63
2021/09/27 04:03:46;;;;;;;9.07;5.18;;;;;;;;;;4898624;29;20043;-63
2021/09/27 04:06:12;;;;;;;11.18;5.00;;;;;;;;;;4898708;29;20111;-63
2021/09/27 04:09:00;;;;;;;11.73;5.10;;;;;;;;;;4898553;29;20059;-64
2021/09/27 04:11:32;;;;;;;8.05;5.00;;;;;;;;;;4881911;29;20020;-63
2021/09/27 04:13:58;;;;;;;;;;;;;;;;;;4898989;29;20107;-63
2021/09/27 04:16:42;;;;;;;10.68;5.13;;;;;;;;;;4898380;29;19998;-62
2021/09/27 04:19:11;;;;;;;9.25;5.20;;;;;;;;;;4896591;29;20052;-63
2021/09/27 04:21:42;;;;;;;11.45;5.15;;;;;;;;;;4898635;29;20033;-63
2021/09/27 04:24:24;;;;;;;9.20;5.18;;;;;;;;;;4898434;29;20039;-63
2021/09/27 04:26:56;;;;;;;12.88;4.75;;;;;;;;;;4898100;29;20110;-62
2021/09/27 04:29:22;;;;;;;12.85;5.07;;;;;;;;;;4898161;29;20033;-62
2021/09/27 04:31:48;;;;;;;10.32;4.90;;;;;;;;;;4881273;29;20032;-62
2021/09/27 04:34:14;;;;;;;11.75;5.57;;;;;;;;;;4898206;29;20496;-62
2021/09/27 04:36:46;;;;;;;14.13;5.90;;;;;;;;;;4880879;29;20029;-62
2021/09/27 04:39:13;;;;;;;12.25;5.82;;;;;;;;;;4898103;29;20028;-63
2021/09/27 04:41:39;;;;;;;10.60;5.47;;;;;;;;;;4897845;29;20092;-64
2021/09/27 04:44:29;;;;;;;12.30;5.70;;;;;;;;;;4880970;29;20028;-62
2021/09/27 04:46:55;;;;;;;12.43;5.88;;;;;;;;;;4806357;29;20470;-61
2021/09/27 04:49:36;;;;;;;10.98;5.65;;;;;;;;;;4806174;29;20092;-64
2021/09/27 04:52:30;;;;;;;12.15;5.85;;;;;;;;;;4806073;29;20042;-62
2021/09/27 04:55:19;;;;;;;9.63;5.68;;;;;;;;;;4821677;29;20113;-62
2021/09/27 04:58:03;;;;;;;11.77;5.88;;;;;;;;;;4806272;29;20126;-62
2021/09/27 05:00:31;;;;;;;12.45;5.57;;;;;;;;;;4806279;29;20053;-62
2021/09/27 05:03:05;;;;;;;9.75;5.25;;;;;;;;;;4805992;29;20162;-63
2021/09/27 05:05:42;;;;;;;8.45;5.03;;;;;;;;;;4820569;29;20542;-62
2021/09/27 05:08:08;;;;;;;11.15;5.63;;;;;;;;;;4805975;29;20143;-62
2021/09/27 05:10:43;;;;;;;13.32;5.40;;;;;;;;;;4820935;29;20046;-62
2021/09/27 05:13:12;;;;;;;10.23;4.70;;;;;;;;;;4820800;29;20034;-63
2021/09/27 05:15:47;;;;;;;10.68;5.03;;;;;;;;;;4820670;29;20083;-62
2021/09/27 05:18:31;;;;;;;8.88;4.78;;;;;;;;;;4820531;29;20081;-62
2021/09/27 05:21:00;;;;;;;10.40;5.05;;;;;;;;;;4820227;29;20043;-62
2021/09/27 05:23:53;;;;;;;8.98;5.00;;;;;;;;;;4842926;29;20047;-62
2021/09/27 05:26:19;;;;;;;;;;;;;;;;;;4894126;29;20083;-63
2021/09/27 05:28:45;;;;;;;9.27;4.47;;;;;;;;;;4894820;29;20048;-62
2021/09/27 05:31:32;;;;;;;11.77;5.13;;;;;;;;;;4895655;29;20207;-61
2021/09/27 05:34:17;;;;;;;10.70;5.20;;;;;;;;;;4878757;29;20037;-62
2021/09/27 05:36:50;;;;;;;19.70;6.47;;;;;;;;;;4878062;29;20497;-62
2021/09/27 05:39:32;;;;;;;17.63;6.25;;;;;;;;;;4895311;29;20056;-64
2021/09/27 05:41:58;;;;;;;14.38;5.57;;;;;;;;;;4877267;29;20119;-64
2021/09/27 05:44:31;;;;;;;10.85;4.93;;;;;;;;;;4878193;29;20037;-65
2021/09/27 05:47:04;;;;;;;12.73;5.68;;;;;;;;;;4895193;29;20036;-62
2021/09/27 05:49:42;;;;;;;9.05;5.07;;;;;;;;;;4879253;29;20033;-63
2021/09/27 05:52:15;;;;;;;10.02;5.28;;;;;;;;;;4879283;29;20033;-64
2021/09/27 05:54:57;;;;;;;10.98;5.43;;;;;;;;;;4896256;29;20540;-65
2021/09/27 05:57:43;;;;;;;16.83;4.68;;;;;;;;;;4896204;29;20032;-64
2021/09/27 06:00:12;;;;;;;8.32;4.72;;;;;;;;;;4896322;29;20032;-63
2021/09/27 06:02:56;;;;;;;11.73;4.75;;;;;;;;;;4896156;29;20036;-64
2021/09/27 06:05:25;;;;;;;16.88;5.63;;;;;;;;;;4896075;29;20025;-63
2021/09/27 06:07:51;;;;;;;15.65;5.57;;;;;;;;;;4879192;29;20340;-63
2021/09/27 06:10:25;;;;;;;11.70;5.10;;;;;;;;;;4879096;29;20091;-63
2021/09/27 06:13:00;;;;;;;9.25;4.78;;;;;;;;;;4879005;29;20029;-64
2021/09/27 06:15:29;;;;;;;13.10;5.55;;;;;;;;;;4896042;29;20028;-64
2021/09/27 06:18:01;;;;;;;11.77;5.88;;;;;;;;;;4895424;29;20032;-65
2021/09/27 06:20:27;;;;;;;15.70;6.30;;;;;;;;;;4879040;29;20077;-64
2021/09/27 06:22:53;;;;;;;13.23;6.22;;;;;;;;;;4895673;29;20028;-65
2021/09/27 06:25:22;;;;;;;12.88;6.78;;;;;;;;;;4896032;29;20065;-63
2021/09/27 06:27:48;;;;;;;10.85;5.88;;;;;;;;;;4895773;29;20024;-64
2021/09/27 06:30:33;;;;;;;10.30;5.63;;;;;;;;;;4895757;29;20541;-63
2021/09/27 06:33:18;;;;;;;11.75;5.60;;;;;;;;;;4895471;29;20024;-63
2021/09/27 06:35:46;;;;;;;11.18;5.75;;;;;;;;;;4895736;29;20033;-63
2021/09/27 06:38:13;;;;;;;12.27;6.15;;;;;;;;;;4895564;29;20071;-65
2021/09/27 06:40:45;;;;;;;13.35;5.90;;;;;;;;;;4878608;29;20040;-64
2021/09/27 06:43:16;;;;;;;10.65;5.55;;;;;;;;;;4897909;29;20028;-63
2021/09/27 06:45:42;;;;;;;15.75;6.50;;;;;;;;;;4898037;29;20541;-66
2021/09/27 06:48:08;;;;;;;12.45;5.95;;;;;;;;;;4898625;29;20037;-64
2021/09/27 06:50:34;;;;;;;10.48;5.53;;;;;;;;;;4898126;29;20037;-65
2021/09/27 06:53:00;;;;;;;10.50;5.72;;;;;;;;;;4897898;29;20032;-66
2021/09/27 06:55:26;;;;;;;11.13;5.80;;;;;;;;;;4881216;29;20060;-64
2021/09/27 06:57:52;;;;;;;14.73;5.88;;;;;;;;;;4898108;29;20031;-64
2021/09/27 07:00:18;;;;;;;13.32;6.50;;;;;;;;;;4897968;29;20040;-63
2021/09/27 07:02:45;;;;;;;14.43;6.05;;;;;;;;;;4881961;29;20085;-63
2021/09/27 07:05:12;;;;;;;15.35;5.90;;;;;;;;;;4899902;29;20127;-63
2021/09/27 07:07:39;;;;;;;11.02;5.63;;;;;;;;;;4883219;29;20021;-64
2021/09/27 07:10:07;;;;;;;13.13;5.72;;;;;;;;;;4899359;29;20036;-66
2021/09/27 07:12:33;;;;;;;12.55;5.68;;;;;;;;;;4882169;29;20397;-65
2021/09/27 07:14:59;;;;;;;11.52;5.13;;;;;;;;;;4881904;29;20047;-65
2021/09/27 07:17:25;;;;;;;12.77;5.45;;;;;;;;;;4881583;29;20048;-67
2021/09/27 07:19:51;;;;;;;13.65;5.47;;;;;;;;;;4881466;29;20057;-64
2021/09/27 07:22:17;;;;;;;14.38;5.72;;;;;;;;;;4898659;29;20025;-64
2021/09/27 07:24:44;;;;;;;10.13;6.32;;;;;;;;;;4881736;29;20088;-66
2021/09/27 07:27:10;;;;;;;12.10;5.75;;;;;;;;;;4881729;29;20039;-64
2021/09/27 07:29:36;;;;;;;16.30;6.80;;;;;;;;;;4881669;29;20552;-63
2021/09/27 07:32:03;;;;;;;12.98;6.40;;;;;;;;;;4897406;29;20032;-63
2021/09/27 07:34:29;;;;;;;13.35;6.13;;;;;;;;;;4893961;29;20362;-64
2021/09/27 07:36:55;;;;;;;12.45;5.90;;;;;;;;;;4897495;29;20021;-65
2021/09/27 07:39:21;;;;;;;12.05;6.38;;;;;;;;;;4896782;29;20872;-63
2021/09/27 07:41:47;;;;;;;12.80;4.72;;;;;;;;;;4896938;29;20063;-64
2021/09/27 07:44:13;;;;;;;7.95;5.03;;;;;;;;;;4896725;29;20021;-63
2021/09/27 07:46:39;;;;;;;9.98;5.22;;;;;;;;;;4897436;29;20025;-63
2021/09/27 07:49:06;;;;;;;10.52;5.13;;;;;;;;;;4897045;29;20029;-64
2021/09/27 07:51:32;;;;;;;7.95;4.93;;;;;;;;;;4894288;29;20063;-63
2021/09/27 07:53:58;;;;;;;15.27;5.82;;;;;;;;;;4895898;29;20068;-63
2021/09/27 07:56:24;;;;;;;12.25;5.72;;;;;;;;;;4896795;29;20036;-63
2021/09/27 07:58:50;;;;;;;11.10;5.15;;;;;;;;;;4896382;29;20100;-63
2021/09/27 08:01:16;;;;;;;10.75;5.25;;;;;;;;;;4896422;29;20049;-63
2021/09/27 08:03:42;;;;;;;10.93;5.13;;;;;;;;;;4897008;29;20035;-63
2021/09/27 08:06:10;;;;;;;12.15;5.65;;;;;;;;;;4896961;29;20031;-63
2021/09/27 08:08:36;;;;;;;9.38;5.40;;;;;;;;;;4896564;29;20017;-66
2021/09/27 08:11:03;;;;;;;11.93;5.40;;;;;;;;;;4896140;29;20025;-66
2021/09/27 08:13:29;;;;;;;14.07;4.85;;;;;;;;;;4896131;29;20020;-64
2021/09/27 08:15:55;;;;;;;10.48;5.03;;;;;;;;;;4896079;29;20489;-65
2021/09/27 08:18:22;;;;;;;11.07;4.88;;;;;;;;;;4896194;29;20061;-65
2021/09/27 08:20:50;;;;;;;9.32;4.88;;;;;;;;;;4895409;29;20120;-65
2021/09/27 08:23:16;;;;;;;11.20;5.30;;;;;;;;;;4897284;29;20088;-65
2021/09/27 08:25:43;;;;;;;17.05;5.55;;;;;;;;;;4897976;29;20036;-65
2021/09/27 08:28:11;;;;;;;10.25;5.15;;;;;;;;;;4897458;29;20029;-65
2021/09/27 08:30:39;;;;;;;11.02;5.50;;;;;;;;;;4897721;29;20039;-65
2021/09/27 08:33:05;;;;;;;12.18;5.35;;;;;;;;;;4897485;29;20092;-65
2021/09/27 08:35:32;;;;;;;10.55;5.95;;;;;;;;;;4897292;29;20032;-65
2021/09/27 08:37:59;;;;;;;11.00;5.60;;;;;;;;;;4896752;29;20072;-65
2021/09/27 08:40:43;;;;;;;9.68;5.40;;;;;;;;;;4897171;29;20037;-64
2021/09/27 08:43:14;;;;;;;11.73;5.32;;;;;;;;;;4897808;29;20061;-65
2021/09/27 08:45:41;;;;;;;14.57;5.68;;;;;;;;;;4896537;29;20401;-64
2021/09/27 08:48:15;;;;;;;11.10;5.07;;;;;;;;;;4897320;29;20064;-65
2021/09/27 08:50:43;;;;;;;10.75;5.40;;;;;;;;;;4896768;29;20085;-65
2021/09/27 08:53:25;;;;;;;9.60;5.47;;;;;;;;;;4897190;29;20025;-65
2021/09/27 08:55:52;;;;;;;11.75;5.32;;;;;;;;;;4897353;29;20493;-64
2021/09/27 08:58:19;;;;;;;10.35;5.43;;;;;;;;;;4897265;29;20051;-66
2021/09/27 09:00:49;;;;;;;10.70;5.68;;;;;;;;;;4896953;29;20084;-64
2021/09/27 09:03:15;;;;;;;14.63;5.80;;;;;;;;;;4896801;29;20035;-65
2021/09/27 09:05:44;;;;;;;7.22;4.93;;;;;;;;;;4895542;29;20060;-65
2021/09/27 09:08:13;;;;;;;11.20;4.88;;;;;;;;;;4896412;29;20056;-64
2021/09/27 09:10:40;;;;;;;10.68;5.25;;;;;;;;;;4896123;29;20079;-64
2021/09/27 09:13:06;;;;;;;11.27;5.50;;;;;;;;;;4896846;29;20552;-63
2021/09/27 09:15:33;;;;;;;14.48;5.75;;;;;;;;;;4896833;29;20441;-66
2021/09/27 09:17:59;;;;;;;14.23;5.65;;;;;;;;;;4896303;29;20362;-65
2021/09/27 09:20:27;;;;;;;10.25;5.25;;;;;;;;;;4896819;29;20036;-64
2021/09/27 09:22:54;;;;;;;14.57;5.30;;;;;;;;;;4896932;29;20036;-65
2021/09/27 09:25:24;;;;;;;13.10;5.50;;;;;;;;;;4896643;29;20633;-66
2021/09/27 09:27:50;;;;;;;12.25;5.72;;;;;;;;;;4897045;29;20028;-65
2021/09/27 09:30:16;;;;;;;13.13;6.00;;;;;;;;;;4896459;29;20043;-64
2021/09/27 09:32:42;;;;;;;12.52;5.03;;;;;;;;;;4895847;29;20033;-66
2021/09/27 09:35:24;;;;;;;11.98;5.20;;;;;;;;;;4896186;29;20544;-66
2021/09/27 09:38:10;;;;;;;10.45;5.43;;;;;;;;;;4896439;29;20481;-68
2021/09/27 09:40:36;;;;;;;14.57;5.75;;;;;;;;;;4896416;29;20064;-67
2021/09/27 09:43:03;;;;;;;14.73;6.35;;;;;;;;;;4896621;29;20503;-67
2021/09/27 09:45:31;;;;;;;14.63;6.53;;;;;;;;;;4896230;29;20080;-66
2021/09/27 09:48:17;;;;;;;11.95;5.95;;;;;;;;;;4896354;29;20037;-67
2021/09/27 09:50:44;;;;;;;12.90;6.78;;;;;;;;;;4896498;29;20036;-63
2021/09/27 09:53:18;;;;;;;21.85;6.72;;;;;;;;;;4896580;29;20111;-67
2021/09/27 09:55:52;;;;;;;14.52;6.78;;;;;;;;;;4896552;29;20029;-66
2021/09/27 09:58:37;;;;;;;14.98;6.68;;;;;;;;;;4896500;29;20029;-66
2021/09/27 10:01:05;;;;;;;14.52;6.97;;;;;;;;;;4896621;29;20048;-65
2021/09/27 10:03:34;;;;;;;20.23;7.28;;;;;;;;;;4896273;29;20084;-65
2021/09/27 10:06:08;;;;;;;12.63;6.60;;;;;;;;;;4896400;29;20035;-65
2021/09/27 10:08:35;;;;;;;13.73;6.55;;;;;;;;;;4895943;29;20044;-63
2021/09/27 10:11:01;;;;;;;14.35;6.93;;;;;;;;;;4894826;29;20052;-64
2021/09/27 10:13:44;;;;;;;12.52;6.38;;;;;;;;;;4894806;29;20032;-63
2021/09/27 10:16:15;;;;;;;11.38;6.45;;;;;;;;;;4894178;29;20024;-63
2021/09/27 10:18:44;;;;;;;12.33;6.30;;;;;;;;;;4892605;29;20501;-66
2021/09/27 10:21:19;;;;;;;14.80;6.68;;;;;;;;;;4894181;29;20299;-64
2021/09/27 10:23:47;;;;;;;16.02;6.50;;;;;;;;;;4894430;29;20025;-62
2021/09/27 10:26:13;;;;;;;12.45;6.63;;;;;;;;;;4893943;29;20389;-65
2021/09/27 10:28:40;;;;;;;14.50;6.18;;;;;;;;;;4895140;29;20389;-64
2021/09/27 10:31:08;;;;;;;15.52;6.57;;;;;;;;;;4894676;29;20050;-64
2021/09/27 10:33:37;;;;;;;18.77;6.63;;;;;;;;;;4895083;29;20039;-70
2021/09/27 10:36:07;;;;;;;17.02;6.82;;;;;;;;;;4895990;29;20035;-69
2021/09/27 10:38:42;;;;;;;16.85;6.72;;;;;;;;;;4894575;29;20028;-64
2021/09/27 10:41:20;;;;;;;13.50;6.45;;;;;;;;;;4894712;29;20059;-63
2021/09/27 10:43:47;;;;;;;18.33;7.03;;;;;;;;;;4893857;29;20033;-64
2021/09/27 10:46:15;;;;;;;17.90;7.07;;;;;;;;;;4892126;29;20032;-63
2021/09/27 10:48:43;;;;;;;13.23;6.78;;;;;;;;;;4894213;29;20048;-63
2021/09/27 10:51:10;;;;;;;37.08;7.38;;;;;;;;;;4894796;29;20028;-66
2021/09/27 10:53:44;;;;;;;20.00;6.82;;;;;;;;;;4878727;29;20036;-65
2021/09/27 10:56:33;;;;;;;18.25;7.20;;;;;;;;;;4895424;29;20021;-65
2021/09/27 10:59:12;;;;;;;15.82;7.35;;;;;;;;;;4894833;29;20568;-64
2021/09/27 11:01:41;;;;;;;18.58;8.02;;;;;;;;;;4893290;29;20041;-65
2021/09/27 11:04:16;;;;;;;23.05;7.40;;;;;;;;;;4890868;29;20057;-63
2021/09/27 11:06:56;;;;;;;12.75;7.13;;;;;;;;;;4887251;29;20039;-66
2021/09/27 11:09:37;;;;;;;14.68;7.43;;;;;;;;;;4900854;29;20099;-64
2021/09/27 11:12:22;;;;;;;18.73;7.68;;;;;;;;;;4890464;29;20029;-66
2021/09/27 11:14:51;;;;;;;16.00;7.43;;;;;;;;;;4893939;29;20076;-66
2021/09/27 11:17:17;;;;;;;16.92;8.23;;;;;;;;;;4894527;29;20048;-65
2021/09/27 11:19:44;;;;;;;20.88;7.93;;;;;;;;;;4895451;29;20062;-75
2021/09/27 11:22:13;;;;;;;19.08;8.15;;;;;;;;;;4878692;29;20033;-72
2021/09/27 11:24:42;;;;;;;21.35;8.50;;;;;;;;;;4894325;29;20143;-73
2021/09/27 11:27:12;;;;;;;24.05;8.63;;;;;;;;;;4894775;29;20032;-75
2021/09/27 11:29:38;;;;;;;26.13;8.65;;;;;;;;;;4899360;29;20037;-71
2021/09/27 11:32:14;;;;;;;21.23;8.82;;;;;;;;;;4899107;29;20028;-76
2021/09/27 11:34:45;;;;;;;20.23;8.70;;;;;;;;;;4897934;29;20568;-74
2021/09/27 11:37:14;;;;;;;15.80;8.38;;;;;;;;;;4881780;29;20499;-78
2021/09/27 11:39:42;;;;;;;17.38;8.80;;;;;;;;;;4898668;29;20065;-75
2021/09/27 11:42:08;;;;;;;20.30;8.80;;;;;;;;;;4898983;29;20028;-74
2021/09/27 11:44:36;;;;;;;14.70;7.38;;;;;;;;;;4898966;29;20032;-75
2021/09/27 11:47:03;;;;;;;18.73;8.10;;;;;;;;;;4897793;29;20123;-77
2021/09/27 11:49:47;;;;;;;27.17;8.93;;;;;;;;;;4881793;29;20083;-64
2021/09/27 11:52:19;;;;;;;19.98;8.35;;;;;;;;;;4898889;29;20111;-74
2021/09/27 11:54:48;;;;;;;;;;;;;;;;;;4899249;29;20033;-75
2021/09/27 11:57:22;;;;;;;16.65;8.13;;;;;;;;;;4895049;29;19915;-76
2021/09/27 11:59:48;;;;;;;19.27;7.85;;;;;;;;;;4889424;29;20061;-78
2021/09/27 12:02:17;;;;;;;17.90;7.90;;;;;;;;;;4887738;29;20033;-75
2021/09/27 12:04:52;;;;;;;19.30;8.68;;;;;;;;;;4889278;29;20020;-77
2021/09/27 12:07:20;;;;;;;17.48;8.13;;;;;;;;;;4889720;29;20024;-66
2021/09/27 12:09:46;;;;;;;19.35;8.55;;;;;;;;;;4888557;29;20033;-79
2021/09/27 12:12:29;;;;;;;18.08;8.32;;;;;;;;;;4888927;29;20025;-78
2021/09/27 12:14:56;;;;;;;17.60;8.32;;;;;;;;;;4889003;29;20091;-76
2021/09/27 12:17:26;;;;;;;14.50;8.40;;;;;;;;;;4888893;29;20061;-77
2021/09/27 12:19:57;;;;;;;22.27;9.02;;;;;;;;;;4884203;29;20065;-67
2021/09/27 12:22:27;;;;;;;18.77;8.75;;;;;;;;;;4889440;29;20481;-77
2021/09/27 12:24:54;;;;;;;16.42;8.48;;;;;;;;;;4889149;29;20032;-76
2021/09/27 12:27:22;;;;;;;15.32;8.35;;;;;;;;;;4887562;29;20522;-76
2021/09/27 12:29:54;;;;;;;17.65;8.38;;;;;;;;;;4887809;29;20401;-74
2021/09/27 12:32:28;;;;;;;16.20;7.65;;;;;;;;;;4887451;29;20028;-66
2021/09/27 12:34:55;;;;;;;20.17;9.10;;;;;;;;;;4889782;29;20509;-76
2021/09/27 12:37:21;;;;;;;15.77;8.45;;;;;;;;;;4891214;29;20021;-75
2021/09/27 12:39:48;;;;;;;17.90;9.15;;;;;;;;;;4890373;29;20396;-72
2021/09/27 12:42:22;;;;;;;18.70;7.90;;;;;;;;;;4891136;29;20489;-76
2021/09/27 12:45:06;;;;;;;18.67;8.30;;;;;;;;;;4889867;29;20433;-77
2021/09/27 12:47:33;;;;;;;17.27;8.18;;;;;;;;;;4870695;29;20048;-76
2021/09/27 12:50:00;;;;;;;14.25;7.57;;;;;;;;;;4888692;29;20392;-64
2021/09/27 12:52:47;;;;;;;17.02;7.70;;;;;;;;;;4886543;29;20143;-71
2021/09/27 12:55:16;;;;;;;16.95;7.28;;;;;;;;;;4888648;29;20041;-74
2021/09/27 12:57:50;;;;;;;14.52;7.10;;;;;;;;;;4887949;29;20381;-77
2021/09/27 13:00:38;;;;;;;19.15;6.90;;;;;;;;;;4886441;29;20041;-75
2021/09/27 13:03:07;;;;;;;12.10;6.72;;;;;;;;;;4884309;29;20033;-76
2021/09/27 13:05:50;;;;;;;18.73;8.02;;;;;;;;;;4884997;29;20061;-66
2021/09/27 13:08:48;;;;;;;13.63;7.10;;;;;;;;;;4888400;29;20429;-71
2021/09/27 13:11:35;;;;;;;21.15;7.85;;;;;;;;;;4832137;29;20064;-69
2021/09/27 13:14:05;;;;;;;13.25;6.68;;;;;;;;;;4845171;29;20041;-75
2021/09/27 13:16:37;;;;;;;12.13;6.65;;;;;;;;;;4847709;29;20112;-75
2021/09/27 13:19:06;;;;;;;18.20;7.03;;;;;;;;;;4832093;29;20077;-75
2021/09/27 13:21:35;;;;;;;15.20;6.30;;;;;;;;;;4845828;29;20049;-74
2021/09/27 13:24:04;;;;;;;17.38;7.43;;;;;;;;;;4843843;29;20057;-76
2021/09/27 13:26:33;;;;;;;19.92;7.60;;;;;;;;;;4839126;29;20030;-71
2021/09/27 13:29:03;;;;;;;18.63;7.00;;;;;;;;;;4830799;29;20060;-77
2021/09/27 13:31:32;;;;;;;17.15;7.25;;;;;;;;;;4846340;29;20064;-76
2021/09/27 13:34:00;;;;;;;14.35;6.78;;;;;;;;;;4841782;29;20045;-77
2021/09/27 13:36:29;;;;;;;16.00;6.72;;;;;;;;;;4839138;29;20098;-79
2021/09/27 13:38:58;;;;;;;13.00;6.55;;;;;;;;;;4845471;29;20121;-76
2021/09/27 13:41:29;;;;;;;17.25;7.05;;;;;;;;;;4847290;29;20988;-74
2021/09/27 13:43:58;;;;;;;15.13;6.55;;;;;;;;;;4843718;29;20030;-77
2021/09/27 13:46:28;;;;;;;17.45;7.57;;;;;;;;;;4856290;29;20041;-75
2021/09/27 13:48:54;;;;;;;13.43;6.88;;;;;;;;;;4890603;29;20119;-77
2021/09/27 13:51:21;;;;;;;17.20;6.80;;;;;;;;;;4896557;29;20029;-74
2021/09/27 13:53:50;;;;;;;14.45;6.63;;;;;;;;;;4896706;29;20055;-75
2021/09/27 13:56:20;;;;;;;18.52;7.70;;;;;;;;;;4896375;29;20063;-77
2021/09/27 13:58:47;;;;;;;16.45;7.30;;;;;;;;;;4887157;29;20020;-72
2021/09/27 14:01:13;;;;;;;15.07;6.72;;;;;;;;;;4887149;29;20028;-76
2021/09/27 14:03:39;;;;;;;16.73;6.65;;;;;;;;;;4870356;29;20040;-67
2021/09/27 14:06:06;;;;;;;17.80;7.05;;;;;;;;;;4885351;29;20028;-77
2021/09/27 14:08:32;;;;;;;16.45;6.47;;;;;;;;;;4885739;29;20484;-70
2021/09/27 14:10:58;;;;;;;15.40;6.40;;;;;;;;;;4886525;29;20033;-67
2021/09/27 14:13:26;;;;;;;12.32;6.85;;;;;;;;;;4884239;29;20036;-77
2021/09/27 14:15:53;;;;;;;14.82;6.25;;;;;;;;;;4877569;29;20116;-70
2021/09/27 14:18:19;;;;;;;15.32;7.40;;;;;;;;;;4884223;29;20404;-77
2021/09/27 14:20:46;;;;;;;16.58;7.55;;;;;;;;;;4896070;29;20049;-79
2021/09/27 14:23:13;;;;;;;14.88;6.60;;;;;;;;;;4893997;29;20464;-79
2021/09/27 14:25:40;;;;;;;13.20;6.80;;;;;;;;;;4886672;29;20116;-71
2021/09/27 14:28:06;;;;;;;12.57;6.93;;;;;;;;;;4883581;29;20033;-72
2021/09/27 14:30:32;;;;;;;20.52;6.53;;;;;;;;;;4886965;29;20440;-78
2021/09/27 14:32:58;;;;;;;16.02;6.20;;;;;;;;;;4885636;29;20088;-75
2021/09/27 14:35:24;;;;;;;17.27;6.10;;;;;;;;;;4884715;29;20072;-81
2021/09/27 14:37:51;;;;;;;14.07;6.30;;;;;;;;;;4886026;29;20024;-73
2021/09/27 14:40:19;;;;;;;19.17;6.97;;;;;;;;;;4880484;29;20064;-68
2021/09/27 14:42:45;;;;;;;14.43;6.40;;;;;;;;;;4885231;29;20542;-70
2021/09/27 14:45:12;;;;;;;11.32;6.28;;;;;;;;;;4892829;29;20032;-72
2021/09/27 14:47:39;;;;;;;18.85;7.05;;;;;;;;;;4895597;29;20048;-72
2021/09/27 14:50:06;;;;;;;16.52;6.75;;;;;;;;;;4894478;29;20036;-66
2021/09/27 14:52:32;;;;;;;20.23;7.25;;;;;;;;;;4881295;29;20029;-65
2021/09/27 14:54:59;;;;;;;10.30;6.30;;;;;;;;;;4877087;29;20477;-64